createdAt,value
2018-03-07T00:00:11.499Z,43.57
2018-03-07T00:02:39.786Z,45.60
2018-03-07T00:05:08.068Z,45.57
2018-03-07T00:07:36.287Z,44.83
2018-03-07T00:10:05.271Z,45.70
2018-03-07T00:12:32.853Z,46.20
2018-03-07T00:15:00.446Z,44.90
2018-03-07T00:17:28.253Z,42.37
2018-03-07T00:19:55.776Z,45.88
2018-03-07T00:22:23.910Z,44.03
2018-03-07T00:24:51.662Z,43.87
2018-03-07T00:27:19.248Z,43.13
2018-03-07T00:29:47.024Z,46.20
2018-03-07T00:32:14.770Z,45.43
2018-03-07T00:34:43.281Z,42.10
2018-03-07T00:37:10.826Z,43.47
2018-03-07T00:39:38.578Z,43.43
2018-03-07T00:42:06.448Z,43.30
2018-03-07T00:44:34.040Z,43.17
2018-03-07T00:47:02.413Z,38.87
2018-03-07T00:49:30.229Z,41.77
2018-03-07T00:51:58.205Z,41.93
2018-03-07T00:54:26.209Z,41.20
2018-03-07T00:56:53.944Z,39.03
2018-03-07T00:59:22.746Z,40.13
2018-03-07T01:01:50.462Z,38.67
2018-03-07T01:04:18.018Z,39.00
2018-03-07T01:06:47.391Z,38.57
2018-03-07T01:09:15.108Z,37.47
2018-03-07T01:11:43.497Z,40.87
2018-03-07T01:14:11.089Z,39.70
2018-03-07T01:16:38.641Z,37.42
2018-03-07T01:19:06.242Z,36.60
2018-03-07T01:21:34.651Z,39.75
2018-03-07T01:24:03.849Z,39.63
2018-03-07T01:26:31.651Z,41.23
2018-03-07T01:28:59.224Z,39.92
2018-03-07T01:31:26.944Z,40.05
2018-03-07T01:33:55.334Z,39.00
2018-03-07T01:36:23.601Z,39.07
2018-03-07T01:38:51.170Z,41.83
2018-03-07T01:41:19.357Z,41.28
2018-03-07T01:43:47.622Z,43.50
2018-03-07T01:46:15.875Z,42.23
2018-03-07T01:48:44.427Z,41.40
2018-03-07T01:51:12.394Z,39.73
2018-03-07T01:53:40.395Z,44.27
2018-03-07T01:56:08.003Z,43.27
2018-03-07T01:58:36.452Z,40.00
2018-03-07T02:01:04.137Z,43.60
2018-03-07T02:03:31.690Z,41.40
2018-03-07T02:05:59.256Z,41.60
2018-03-07T02:08:26.829Z,41.97
2018-03-07T02:10:55.362Z,42.30
2018-03-07T02:13:23.764Z,40.90
2018-03-07T02:15:54.025Z,41.03
2018-03-07T02:18:21.557Z,38.80
2018-03-07T02:20:49.133Z,41.40
2018-03-07T02:23:16.717Z,39.50
2018-03-07T02:25:44.712Z,40.23
2018-03-07T02:28:12.317Z,40.37
2018-03-07T02:30:40.641Z,37.83
2018-03-07T02:33:08.841Z,38.17
2018-03-07T02:35:36.382Z,37.90
2018-03-07T02:38:04.747Z,40.07
2018-03-07T02:40:33.656Z,37.57
2018-03-07T02:43:04.102Z,37.63
2018-03-07T02:45:34.284Z,38.90
2018-03-07T02:48:02.583Z,38.93
2018-03-07T02:50:30.733Z,36.27
2018-03-07T02:52:58.484Z,36.70
2018-03-07T02:55:26.945Z,39.20
2018-03-07T02:57:54.524Z,35.67
2018-03-07T03:00:24.264Z,37.55
2018-03-07T03:02:51.836Z,35.80
2018-03-07T03:05:20.377Z,37.17
2018-03-07T03:07:48.150Z,37.80
2018-03-07T03:10:16.294Z,35.77
2018-03-07T03:12:46.202Z,35.25
2018-03-07T03:15:14.320Z,37.78
2018-03-07T03:17:42.893Z,33.17
2018-03-07T03:20:10.620Z,36.00
2018-03-07T03:22:39.132Z,37.67
2018-03-07T03:25:06.851Z,35.83
2018-03-07T03:27:34.502Z,34.73
2018-03-07T03:30:02.076Z,37.93
2018-03-07T03:32:30.357Z,34.20
2018-03-07T03:34:59.350Z,34.40
2018-03-07T03:37:26.885Z,35.37
2018-03-07T03:39:54.582Z,34.20
2018-03-07T03:42:22.122Z,35.93
2018-03-07T03:44:49.708Z,37.10
2018-03-07T03:47:17.565Z,35.17
2018-03-07T03:49:45.964Z,35.30
2018-03-07T03:52:14.811Z,34.43
2018-03-07T03:54:42.347Z,35.10
2018-03-07T03:57:10.050Z,33.97
2018-03-07T03:59:38.964Z,31.00
2018-03-07T04:02:07.550Z,34.17
2018-03-07T04:04:35.123Z,34.10
2018-03-07T04:07:03.082Z,34.43
2018-03-07T04:09:30.889Z,33.87
2018-03-07T04:11:58.471Z,31.73
2018-03-07T04:14:26.054Z,35.60
2018-03-07T04:16:53.795Z,33.07
2018-03-07T04:19:22.243Z,32.43
2018-03-07T04:21:49.818Z,33.17
2018-03-07T04:24:17.349Z,31.20
2018-03-07T04:26:45.297Z,31.37
2018-03-07T04:29:12.770Z,34.10
2018-03-07T04:31:40.732Z,34.42
2018-03-07T04:34:08.989Z,31.60
2018-03-07T04:36:36.748Z,33.00
2018-03-07T04:39:04.332Z,33.17
2018-03-07T04:41:32.926Z,34.57
2018-03-07T04:44:00.497Z,35.37
2018-03-07T04:46:28.671Z,32.03
2018-03-07T04:48:56.305Z,33.53
2018-03-07T04:51:24.273Z,31.63
2018-03-07T04:53:52.987Z,36.40
2018-03-07T04:56:25.905Z,31.45
2018-03-07T04:58:53.498Z,33.47
2018-03-07T05:01:21.277Z,29.47
2018-03-07T05:03:48.838Z,31.65
2018-03-07T05:06:17.747Z,32.67
2018-03-07T05:08:45.294Z,30.33
2018-03-07T05:11:14.316Z,29.20
2018-03-07T05:13:42.796Z,30.53
2018-03-07T05:16:10.394Z,30.97
2018-03-07T05:18:39.068Z,29.80
2018-03-07T05:21:06.632Z,29.70
2018-03-07T05:23:34.764Z,31.03
2018-03-07T05:26:02.361Z,31.47
2018-03-07T05:28:30.240Z,31.80
2018-03-07T05:30:57.813Z,28.40
2018-03-07T05:33:25.353Z,40.80
2018-03-07T05:35:52.920Z,40.93
2018-03-07T05:38:21.342Z,41.20
2018-03-07T05:40:48.949Z,40.17
2018-03-07T05:43:16.526Z,38.37
2018-03-07T05:45:44.072Z,37.30
2018-03-07T05:48:11.604Z,33.35
2018-03-07T05:50:40.080Z,28.97
2018-03-07T05:53:08.672Z,29.60
2018-03-07T05:55:36.254Z,30.57
2018-03-07T05:58:03.833Z,29.60
2018-03-07T06:00:33.685Z,30.80
2018-03-07T06:03:01.243Z,30.80
2018-03-07T06:05:28.855Z,31.48
2018-03-07T06:07:56.394Z,31.30
2018-03-07T06:10:23.935Z,32.17
2018-03-07T06:12:51.501Z,29.97
2018-03-07T06:15:19.074Z,29.00
2018-03-07T06:17:46.648Z,29.50
2018-03-07T06:20:14.722Z,30.90
2018-03-07T06:22:42.553Z,29.17
2018-03-07T06:25:10.089Z,27.17
2018-03-07T06:27:37.646Z,29.95
2018-03-07T06:30:05.474Z,28.73
2018-03-07T06:32:33.009Z,46.97
2018-03-07T06:35:00.643Z,66.93
2018-03-07T06:37:31.355Z,96.93
2018-03-07T06:39:58.959Z,79.62
2018-03-07T06:42:27.407Z,34.17
2018-03-07T06:45:01.161Z,25.33
2018-03-07T06:47:32.531Z,23.23
2018-03-07T06:50:01.138Z,21.90
2018-03-07T06:52:29.073Z,22.10
2018-03-07T06:54:56.646Z,20.30
2018-03-07T06:57:24.586Z,22.17
2018-03-07T06:59:52.156Z,23.50
2018-03-07T07:02:19.711Z,22.50
2018-03-07T07:04:47.232Z,23.47
2018-03-07T07:07:14.814Z,23.60
2018-03-07T07:09:43.555Z,21.90
2018-03-07T07:12:11.174Z,23.33
2018-03-07T07:14:38.737Z,23.27
2018-03-07T07:17:07.149Z,22.23
2018-03-07T07:19:34.741Z,22.53
2018-03-07T07:22:02.281Z,20.43
2018-03-07T07:24:30.301Z,20.30
2018-03-07T07:26:58.822Z,19.40
2018-03-07T07:29:26.385Z,21.60
2018-03-07T07:31:54.442Z,20.17
2018-03-07T07:34:22.015Z,22.17
2018-03-07T07:36:50.051Z,22.60
2018-03-07T07:39:17.616Z,20.50
2018-03-07T07:41:45.250Z,20.23
2018-03-07T07:44:12.878Z,19.57
2018-03-07T07:46:40.879Z,20.85
2018-03-07T07:49:09.244Z,21.27
2018-03-07T07:51:37.770Z,18.87
2018-03-07T07:54:05.369Z,18.60
2018-03-07T07:56:33.427Z,22.40
2018-03-07T07:59:01.003Z,20.27
2018-03-07T08:01:29.021Z,21.23
2018-03-07T08:03:56.595Z,21.23
2018-03-07T08:06:24.162Z,21.58
2018-03-07T08:08:52.587Z,21.62
2018-03-07T08:11:20.182Z,20.10
2018-03-07T08:13:47.740Z,22.00
2018-03-07T08:16:15.343Z,23.23
2018-03-07T08:18:43.225Z,22.37
2018-03-07T08:21:11.736Z,21.70
2018-03-07T08:23:39.304Z,23.00
2018-03-07T08:26:06.879Z,22.47
2018-03-07T08:28:35.292Z,20.48
2018-03-07T08:31:03.272Z,21.77
2018-03-07T08:33:31.269Z,22.87
2018-03-07T08:35:58.816Z,22.35
2018-03-07T08:38:26.393Z,23.13
2018-03-07T08:40:53.936Z,22.50
2018-03-07T08:43:21.485Z,21.37
2018-03-07T08:45:49.114Z,23.37
2018-03-07T08:48:17.982Z,21.57
2018-03-07T08:50:45.561Z,21.67
2018-03-07T08:53:13.114Z,22.73
2018-03-07T08:55:41.258Z,20.20
2018-03-07T08:58:08.812Z,21.73
2018-03-07T09:00:36.440Z,21.20
2018-03-07T09:03:04.879Z,21.10
2018-03-07T09:05:32.516Z,21.87
2018-03-07T09:08:00.089Z,20.03
2018-03-07T09:10:27.647Z,20.27
2018-03-07T09:12:55.260Z,20.47
2018-03-07T09:15:23.293Z,21.80
2018-03-07T09:17:50.907Z,19.85
2018-03-07T09:20:18.489Z,21.57
2018-03-07T09:22:46.081Z,19.13
2018-03-07T09:25:13.641Z,20.83
2018-03-07T09:27:41.229Z,21.70
2018-03-07T09:30:09.183Z,20.90
2018-03-07T09:32:36.885Z,19.08
2018-03-07T09:35:04.871Z,15.95
2018-03-07T09:37:32.492Z,18.67
2018-03-07T09:40:00.050Z,17.70
2018-03-07T09:42:28.447Z,19.10
2018-03-07T09:44:56.421Z,18.10
2018-03-07T09:47:24.442Z,19.02
2018-03-07T09:49:52.009Z,18.73
2018-03-07T09:52:19.564Z,18.80
2018-03-07T09:54:47.567Z,16.50
2018-03-07T09:57:15.583Z,17.50
2018-03-07T09:59:43.769Z,18.58
2018-03-07T10:02:12.181Z,18.73
2018-03-07T10:04:40.154Z,17.55
2018-03-07T10:07:08.143Z,16.37
2018-03-07T10:09:36.026Z,18.10
2018-03-07T10:12:03.641Z,16.95
2018-03-07T10:14:31.206Z,17.93
2018-03-07T10:16:58.763Z,17.85
2018-03-07T10:19:26.362Z,17.60
2018-03-07T10:21:53.976Z,17.07
2018-03-07T10:24:21.592Z,15.80
2018-03-07T10:26:49.169Z,17.87
2018-03-07T10:29:16.747Z,15.68
2018-03-07T10:31:44.351Z,15.90
2018-03-07T10:34:11.903Z,14.57
2018-03-07T10:36:39.830Z,14.77
2018-03-07T10:39:07.832Z,12.73
2018-03-07T10:41:35.914Z,13.70
2018-03-07T10:44:03.519Z,13.82
2018-03-07T10:46:31.112Z,14.03
2018-03-07T10:48:58.659Z,14.20
2018-03-07T10:51:26.613Z,12.50
2018-03-07T10:53:54.188Z,13.60
2018-03-07T10:56:21.767Z,12.70
2018-03-07T10:58:49.339Z,11.75
2018-03-07T11:01:18.106Z,11.50
2018-03-07T11:03:45.753Z,11.83
2018-03-07T11:06:13.349Z,11.00
2018-03-07T11:08:41.302Z,10.55
2018-03-07T11:11:08.872Z,10.80
2018-03-07T11:13:36.824Z,9.40
2018-03-07T11:16:04.372Z,10.03
2018-03-07T11:18:32.983Z,9.47
2018-03-07T11:21:01.330Z,8.25
2018-03-07T11:23:28.909Z,9.07
2018-03-07T11:25:56.443Z,7.28
2018-03-07T11:28:24.036Z,7.60
2018-03-07T11:30:52.017Z,8.67
2018-03-07T11:33:19.602Z,9.73
2018-03-07T11:35:47.278Z,8.07
2018-03-07T11:38:14.894Z,8.70
2018-03-07T11:40:42.872Z,7.57
2018-03-07T11:43:10.891Z,7.15
2018-03-07T11:45:38.481Z,6.93
2018-03-07T11:48:06.021Z,6.45
2018-03-07T11:50:33.586Z,6.35
2018-03-07T11:53:01.131Z,6.20
2018-03-07T11:55:28.824Z,6.33
2018-03-07T11:57:57.398Z,6.50
2018-03-07T12:00:24.977Z,7.67
2018-03-07T12:02:52.936Z,5.53
2018-03-07T12:05:20.485Z,5.80
2018-03-07T12:07:48.044Z,5.30
2018-03-07T12:10:15.647Z,5.20
2018-03-07T12:12:43.573Z,5.23
2018-03-07T12:15:11.162Z,5.60
2018-03-07T12:17:39.226Z,6.57
2018-03-07T12:20:06.754Z,6.60
2018-03-07T12:22:34.867Z,6.63
2018-03-07T12:25:02.822Z,6.50
2018-03-07T12:27:30.777Z,7.23
2018-03-07T12:29:58.334Z,7.35
2018-03-07T12:32:26.477Z,7.00
2018-03-07T12:34:54.896Z,6.43
2018-03-07T12:37:22.415Z,7.72
2018-03-07T12:39:49.997Z,6.97
2018-03-07T12:42:17.566Z,7.17
2018-03-07T12:44:45.150Z,7.80
2018-03-07T12:47:13.994Z,7.28
2018-03-07T12:49:42.327Z,7.30
2018-03-07T12:52:10.243Z,6.07
2018-03-07T12:54:37.805Z,6.40
2018-03-07T12:57:05.357Z,5.97
2018-03-07T12:59:32.912Z,4.90
2018-03-07T13:02:00.494Z,4.73
2018-03-07T13:04:28.065Z,3.40
2018-03-07T13:06:55.683Z,3.85
2018-03-07T13:09:23.702Z,3.30
2018-03-07T13:11:52.562Z,3.53
2018-03-07T13:14:20.149Z,3.13
2018-03-07T13:16:49.874Z,3.28
2018-03-07T13:19:17.875Z,3.13
2018-03-07T13:21:45.421Z,2.60
2018-03-07T13:24:13.371Z,2.70
2018-03-07T13:26:41.093Z,2.83
2018-03-07T13:29:08.706Z,2.10
2018-03-07T13:31:37.100Z,2.80
2018-03-07T13:34:04.679Z,2.10
2018-03-07T13:36:32.265Z,2.23
2018-03-07T13:38:59.942Z,2.20
2018-03-07T13:41:28.438Z,2.47
2018-03-07T13:43:56.470Z,2.00
2018-03-07T13:46:24.028Z,1.90
2018-03-07T13:48:51.618Z,2.30
2018-03-07T13:51:19.175Z,2.13
2018-03-07T13:53:46.745Z,2.40
2018-03-07T13:56:14.714Z,2.20
2018-03-07T13:58:42.266Z,2.20
2018-03-07T14:01:10.285Z,2.40
2018-03-07T14:03:37.845Z,2.05
2018-03-07T14:06:05.396Z,2.50
2018-03-07T14:08:33.023Z,2.30
2018-03-07T14:11:00.985Z,2.30
2018-03-07T14:13:28.566Z,2.35
2018-03-07T14:15:56.126Z,2.20
2018-03-07T14:18:23.679Z,2.08
2018-03-07T14:20:52.451Z,1.70
2018-03-07T14:23:21.596Z,1.63
2018-03-07T14:25:49.181Z,2.30
2018-03-07T14:28:16.828Z,1.90
2018-03-07T14:30:44.493Z,1.77
2018-03-07T14:33:12.015Z,1.73
2018-03-07T14:35:39.558Z,1.77
2018-03-07T14:38:07.517Z,1.80
2018-03-07T14:40:36.194Z,1.90
2018-03-07T14:43:03.811Z,1.52
2018-03-07T14:45:31.394Z,1.53
2018-03-07T14:47:58.938Z,1.87
2018-03-07T14:50:26.495Z,2.77
2018-03-07T14:52:54.094Z,1.83
2018-03-07T14:55:21.638Z,1.47
2018-03-07T14:57:49.194Z,1.90
2018-03-07T15:00:16.739Z,1.90
2018-03-07T15:02:44.361Z,1.33
2018-03-07T15:05:11.922Z,2.13
2018-03-07T15:07:39.467Z,1.70
2018-03-07T15:10:07.414Z,1.70
2018-03-07T15:12:35.027Z,1.47
2018-03-07T15:15:02.627Z,1.73
2018-03-07T15:17:30.222Z,1.80
2018-03-07T15:19:59.102Z,1.70
2018-03-07T15:22:27.425Z,1.80
2018-03-07T15:24:55.579Z,1.93
2018-03-07T15:27:23.179Z,1.93
2018-03-07T15:29:51.676Z,2.05
2018-03-07T15:32:19.299Z,1.60
2018-03-07T15:34:46.868Z,1.53
2018-03-07T15:37:14.424Z,1.70
2018-03-07T15:39:41.984Z,1.87
2018-03-07T15:42:10.182Z,2.00
2018-03-07T15:44:37.710Z,1.90
2018-03-07T15:47:05.312Z,1.70
2018-03-07T15:49:32.913Z,1.85
2018-03-07T15:52:01.125Z,1.63
2018-03-07T15:54:29.289Z,1.80
2018-03-07T15:56:56.856Z,2.03
2018-03-07T15:59:24.418Z,2.20
2018-03-07T16:01:51.981Z,2.20
2018-03-07T16:04:19.554Z,1.90
2018-03-07T16:06:47.150Z,1.90
2018-03-07T16:09:15.147Z,1.80
2018-03-07T16:11:42.694Z,1.60
2018-03-07T16:14:11.003Z,1.80
2018-03-07T16:16:38.562Z,1.80
2018-03-07T16:19:06.826Z,1.70
2018-03-07T16:21:34.450Z,2.00
2018-03-07T16:24:02.411Z,1.77
2018-03-07T16:26:31.615Z,1.70
2018-03-07T16:29:00.431Z,1.83
2018-03-07T16:31:27.990Z,1.70
2018-03-07T16:33:56.238Z,1.70
2018-03-07T16:36:23.800Z,1.63
2018-03-07T16:38:51.818Z,1.40
2018-03-07T16:41:20.012Z,1.67
2018-03-07T16:43:48.384Z,1.90
2018-03-07T16:46:15.981Z,1.92
2018-03-07T16:48:43.788Z,1.75
2018-03-07T16:51:11.591Z,1.80
2018-03-07T16:53:39.130Z,2.73
2018-03-07T16:56:06.756Z,2.30
2018-03-07T16:58:35.180Z,1.80
2018-03-07T17:01:02.889Z,1.77
2018-03-07T17:03:31.316Z,1.87
2018-03-07T17:05:59.746Z,1.77
2018-03-07T17:08:27.338Z,2.87
2018-03-07T17:10:55.378Z,2.78
2018-03-07T17:13:24.631Z,3.20
2018-03-07T17:15:52.212Z,2.77
2018-03-07T17:18:20.986Z,2.37
2018-03-07T17:20:48.751Z,2.22
2018-03-07T17:23:17.213Z,2.27
2018-03-07T17:25:45.522Z,2.43
2018-03-07T17:28:14.056Z,2.62
2018-03-07T17:30:41.647Z,2.30
2018-03-07T17:33:09.285Z,2.93
2018-03-07T17:35:36.834Z,3.03
2018-03-07T17:38:05.287Z,2.93
2018-03-07T17:40:33.845Z,3.50
2018-03-07T17:43:01.751Z,2.90
2018-03-07T17:45:29.317Z,3.47
2018-03-07T17:47:56.891Z,2.97
2018-03-07T17:50:25.181Z,3.53
2018-03-07T17:52:53.124Z,3.12
2018-03-07T17:55:21.074Z,3.07
2018-03-07T17:57:49.034Z,3.70
2018-03-07T18:00:16.576Z,4.10
2018-03-07T18:02:44.116Z,3.40
2018-03-07T18:05:11.703Z,3.80
2018-03-07T18:07:39.287Z,3.60
2018-03-07T18:10:06.849Z,3.10
2018-03-07T18:12:34.840Z,3.67
2018-03-07T18:15:02.399Z,3.95
2018-03-07T18:17:29.967Z,3.30
2018-03-07T18:19:57.525Z,3.90
2018-03-07T18:22:25.098Z,3.43
2018-03-07T18:24:52.741Z,3.00
2018-03-07T18:27:20.342Z,3.80
2018-03-07T18:29:47.910Z,4.03
2018-03-07T18:32:15.535Z,4.20
2018-03-07T18:34:43.074Z,4.57
2018-03-07T18:37:10.661Z,3.90
2018-03-07T18:39:38.201Z,4.00
2018-03-07T18:42:06.190Z,4.20
2018-03-07T18:44:34.458Z,4.22
2018-03-07T18:47:02.069Z,3.90
2018-03-07T18:49:29.704Z,4.30
2018-03-07T18:52:00.289Z,3.67
2018-03-07T18:54:27.875Z,4.15
2018-03-07T18:57:00.901Z,4.23
2018-03-07T18:59:28.781Z,3.93
2018-03-07T19:01:57.285Z,4.97
2018-03-07T19:04:24.869Z,4.40
2018-03-07T19:06:52.417Z,4.70
2018-03-07T19:09:19.965Z,4.53
2018-03-07T19:11:48.001Z,4.37
2018-03-07T19:14:15.530Z,5.10
2018-03-07T19:16:43.120Z,5.27
2018-03-07T19:19:11.113Z,4.93
2018-03-07T19:21:38.987Z,5.77
2018-03-07T19:24:06.597Z,5.30
2018-03-07T19:26:34.299Z,5.00
2018-03-07T19:29:02.362Z,5.00
2018-03-07T19:31:29.887Z,4.83
2018-03-07T19:33:57.469Z,4.70
2018-03-07T19:36:25.078Z,4.80
2018-03-07T19:38:52.683Z,4.50
2018-03-07T19:41:20.265Z,5.10
2018-03-07T19:43:48.284Z,4.93
2018-03-07T19:46:16.319Z,5.97
2018-03-07T19:48:44.330Z,5.83
2018-03-07T19:51:11.961Z,5.30
2018-03-07T19:53:39.526Z,5.33
2018-03-07T19:56:08.686Z,6.37
2018-03-07T19:58:36.290Z,6.70
2018-03-07T20:01:03.915Z,6.50
2018-03-07T20:03:31.442Z,5.53
2018-03-07T20:06:00.587Z,6.30
2018-03-07T20:08:28.186Z,5.00
2018-03-07T20:10:55.959Z,5.43
2018-03-07T20:13:23.643Z,4.70
2018-03-07T20:15:51.235Z,6.27
2018-03-07T20:18:18.821Z,4.75
2018-03-07T20:20:46.387Z,4.83
2018-03-07T20:23:14.178Z,4.80
2018-03-07T20:25:41.826Z,4.97
2018-03-07T20:28:09.363Z,4.37
2018-03-07T20:30:36.977Z,5.23
2018-03-07T20:33:06.164Z,4.87
2018-03-07T20:35:33.715Z,4.12
2018-03-07T20:38:01.367Z,5.03
2018-03-07T20:40:28.969Z,3.83
2018-03-07T20:42:56.938Z,4.40
2018-03-07T20:45:24.962Z,4.47
2018-03-07T20:47:52.554Z,4.47
2018-03-07T20:50:20.368Z,4.40
2018-03-07T20:52:47.985Z,3.50
2018-03-07T20:55:16.188Z,3.50
2018-03-07T20:57:44.158Z,4.65
2018-03-07T21:00:12.407Z,4.27
2018-03-07T21:02:40.023Z,4.60
2018-03-07T21:05:07.576Z,4.13
2018-03-07T21:07:35.151Z,4.65
2018-03-07T21:10:03.580Z,4.47
2018-03-07T21:12:31.161Z,4.53
2018-03-07T21:14:59.658Z,4.43
2018-03-07T21:17:27.247Z,4.93
2018-03-07T21:19:54.826Z,4.62
2018-03-07T21:22:22.777Z,4.60
2018-03-07T21:24:50.826Z,5.17
2018-03-07T21:27:18.368Z,4.83
2018-03-07T21:29:46.034Z,4.17
2018-03-07T21:32:16.063Z,4.50
2018-03-07T21:34:43.627Z,4.40
2018-03-07T21:37:11.213Z,4.37
2018-03-07T21:39:38.902Z,4.12
2018-03-07T21:42:06.542Z,4.00
2018-03-07T21:44:35.725Z,4.90
2018-03-07T21:47:03.374Z,5.07
2018-03-07T21:49:32.085Z,5.10
2018-03-07T21:51:59.680Z,4.70
2018-03-07T21:54:28.569Z,6.00
2018-03-07T21:56:56.125Z,5.00
2018-03-07T21:59:23.709Z,4.82
2018-03-07T22:01:51.347Z,4.77
2018-03-07T22:04:20.529Z,5.20
2018-03-07T22:06:48.633Z,5.33
2018-03-07T22:09:16.259Z,5.90
2018-03-07T22:11:44.222Z,5.35
2018-03-07T22:14:11.978Z,6.10
2018-03-07T22:16:41.919Z,5.30
2018-03-07T22:19:09.893Z,4.83
2018-03-07T22:21:37.838Z,5.80
2018-03-07T22:24:05.450Z,5.83
2018-03-07T22:26:33.012Z,5.77
2018-03-07T22:29:00.617Z,5.50
2018-03-07T22:31:28.284Z,6.00
2018-03-07T22:33:57.191Z,6.53
2018-03-07T22:36:26.004Z,5.37
2018-03-07T22:38:53.607Z,7.23
2018-03-07T22:41:22.723Z,6.20
2018-03-07T22:43:50.308Z,6.23
2018-03-07T22:46:18.761Z,6.30
2018-03-07T22:48:47.733Z,6.97
2018-03-07T22:51:15.394Z,6.57
2018-03-07T22:53:42.983Z,7.57
2018-03-07T22:56:10.552Z,6.57
2018-03-07T22:58:38.503Z,7.03
2018-03-07T23:01:06.627Z,6.60
2018-03-07T23:03:35.701Z,6.32
2018-03-07T23:06:03.297Z,7.73
2018-03-07T23:08:30.897Z,8.02
2018-03-07T23:10:58.753Z,7.10
2018-03-07T23:13:26.322Z,7.97
2018-03-07T23:15:55.939Z,7.95
2018-03-07T23:18:24.513Z,8.55
2018-03-07T23:20:53.137Z,8.70
2018-03-07T23:23:20.685Z,9.47
2018-03-07T23:25:49.190Z,10.13
2018-03-07T23:28:18.101Z,9.30
2018-03-07T23:30:45.681Z,10.00
2018-03-07T23:33:13.346Z,9.87
2018-03-07T23:35:41.641Z,10.13
2018-03-07T23:38:10.515Z,9.67
2018-03-07T23:40:40.005Z,10.43
2018-03-07T23:43:08.474Z,10.37
2018-03-07T23:45:37.149Z,12.48
2018-03-07T23:48:04.730Z,10.55
2018-03-07T23:50:32.567Z,12.10
2018-03-07T23:53:01.095Z,12.37
2018-03-07T23:55:28.668Z,9.43
2018-03-07T23:57:56.785Z,11.47
